Time;durP1;ratioP1;P1;durP2;ratioP2;P2;SDS_P1;SDS_P2;PMS_P1;PMS_P2;Temp;Humidity;BMP_temperature;BMP_pressure;BME280_temperature;BME280_humidity;BME280_pressure;Samples;Min_cycle;Max_cycle;Signal;HPM_P1;HPM_P2
2023/09/22 00:01:04;;;;;;;3.10;1.80;;;;;;;26.39;26.54;100810.59;4943435;28;20098;-73
2023/09/22 00:03:35;;;;;;;4.18;2.10;;;;;;;26.35;26.51;100815.16;4942609;28;20111;-70
2023/09/22 00:06:07;;;;;;;4.35;2.17;;;;;;;26.31;26.22;100808.22;4952793;28;20059;-72
2023/09/22 00:08:36;;;;;;;2.80;1.88;;;;;;;26.21;26.93;100809.47;4940183;28;20055;-72
2023/09/22 00:11:08;;;;;;;7.40;2.22;;;;;;;26.07;26.87;100818.78;4945636;28;20055;-72
2023/09/22 00:13:37;;;;;;;5.70;2.22;;;;;;;25.97;26.52;100819.97;4950847;28;20122;-72
2023/09/22 00:16:06;;;;;;;6.63;2.13;;;;;;;25.91;27.17;100812.25;4948318;28;20131;-73
2023/09/22 00:18:34;;;;;;;2.92;1.95;;;;;;;25.89;27.09;100811.44;4951370;28;20047;-73
2023/09/22 00:21:04;;;;;;;3.00;2.22;;;;;;;25.85;27.33;100820.38;4953618;28;20530;-73
2023/09/22 00:23:34;;;;;;;4.72;1.95;;;;;;;25.78;27.82;100821.50;4948860;28;20536;-72
2023/09/22 00:26:03;;;;;;;3.50;2.40;;;;;;;25.69;27.76;100820.00;4949676;28;20051;-73
2023/09/22 00:28:31;;;;;;;3.53;2.05;;;;;;;25.64;28.06;100817.50;4940434;28;20044;-71
2023/09/22 00:31:00;;;;;;;3.72;2.08;;;;;;;25.59;27.96;100824.72;4945080;28;20086;-71
2023/09/22 00:33:28;;;;;;;4.28;2.17;;;;;;;25.44;28.31;100815.47;4946089;28;20493;-72
2023/09/22 00:36:03;;;;;;;4.03;2.05;;;;;;;25.34;28.58;100835.22;4955789;28;20047;-73
2023/09/22 00:38:34;;;;;;;3.20;1.90;;;;;;;25.27;29.39;100829.25;4949410;28;20407;-73
2023/09/22 00:41:02;;;;;;;6.18;2.60;;;;;;;25.22;28.09;100823.22;4947938;28;20051;-72
2023/09/22 00:43:31;;;;;;;9.93;2.35;;;;;;;25.17;29.60;100830.38;4954455;28;20125;-71
2023/09/22 00:45:59;;;;;;;3.67;1.75;;;;;;;25.09;29.01;100829.75;4945581;28;20580;-71
2023/09/22 00:48:32;;;;;;;5.30;2.13;;;;;;;24.98;29.30;100831.84;4940963;28;20490;-72
2023/09/22 00:51:01;;;;;;;4.53;2.15;;;;;;;24.93;29.89;100831.13;4936708;28;20455;-71
2023/09/22 00:53:32;;;;;;;3.13;1.92;;;;;;;24.84;29.85;100830.47;4947310;28;20071;-72
2023/09/22 00:56:03;;;;;;;5.55;2.20;;;;;;;24.79;29.21;100827.09;4943499;28;20123;-73
2023/09/22 00:58:31;;;;;;;7.30;2.60;;;;;;;24.74;30.18;100829.00;4946329;28;20043;-73
2023/09/22 01:01:00;;;;;;;5.63;2.00;;;;;;;24.65;29.06;100830.13;4938105;28;20047;-70
2023/09/22 01:03:31;;;;;;;9.32;2.20;;;;;;;24.59;30.05;100829.44;4935778;28;20120;-72
2023/09/22 01:06:00;;;;;;;6.77;2.47;;;;;;;24.53;30.70;100829.59;4945924;28;20057;-72
2023/09/22 01:08:28;;;;;;;14.68;2.45;;;;;;;24.44;31.17;100831.56;4948008;28;20091;-73
2023/09/22 01:10:57;;;;;;;8.23;2.10;;;;;;;24.36;31.73;100833.50;4947255;28;20058;-72
2023/09/22 01:13:27;;;;;;;4.05;2.17;;;;;;;24.29;31.40;100831.94;4940834;28;20054;-73
2023/09/22 01:15:57;;;;;;;5.85;2.30;;;;;;;24.21;31.85;100828.63;4941813;28;20059;-72
2023/09/22 01:18:26;;;;;;;6.90;2.30;;;;;;;24.15;31.73;100828.81;4948988;28;20054;-72
2023/09/22 01:21:09;;;;;;;2.97;1.88;;;;;;;24.06;31.70;100829.03;4944108;28;20059;-73
2023/09/22 01:23:39;;;;;;;4.30;2.10;;;;;;;23.98;31.87;100830.09;4939307;28;20489;-73
2023/09/22 01:26:18;;;;;;;7.72;2.33;;;;;;;23.92;32.79;100832.88;4951146;29;20239;-73
2023/09/22 01:28:49;;;;;;;4.00;2.08;;;;;;;23.87;32.67;100831.25;4946971;29;20055;-73
2023/09/22 01:31:18;;;;;;;5.53;2.72;;;;;;;23.80;33.43;100838.44;4947498;29;20051;-72
2023/09/22 01:33:46;;;;;;;5.53;2.35;;;;;;;23.72;33.14;100841.25;4947064;29;20417;-72
2023/09/22 01:36:22;;;;;;;3.90;2.15;;;;;;;23.64;33.55;100845.84;4943046;28;20106;-71
2023/09/22 01:38:53;;;;;;;5.60;2.72;;;;;;;23.53;33.92;100843.44;4944152;28;20409;-72
2023/09/22 01:41:21;;;;;;;4.93;2.38;;;;;;;23.45;33.87;100848.03;4936667;28;20047;-72
2023/09/22 01:43:50;;;;;;;4.13;2.22;;;;;;;23.38;33.96;100849.94;4944581;28;20047;-73
2023/09/22 01:46:21;;;;;;;7.72;3.03;;;;;;;23.30;33.70;100846.59;4949074;28;20051;-71
2023/09/22 01:48:50;;;;;;;4.43;2.10;;;;;;;23.24;34.15;100852.00;4948754;28;20134;-73
2023/09/22 01:51:18;;;;;;;5.28;2.25;;;;;;;23.18;33.83;100847.75;4944820;28;20051;-71
2023/09/22 01:53:46;;;;;;;5.05;2.47;;;;;;;23.12;34.07;100850.50;4942264;28;20062;-71
2023/09/22 01:56:17;;;;;;;4.60;2.03;;;;;;;23.03;34.54;100850.69;4946064;28;20043;-74
2023/09/22 01:58:47;;;;;;;3.83;2.40;;;;;;;22.94;33.63;100856.13;4945131;28;20050;-72
2023/09/22 02:01:17;;;;;;;6.50;2.40;;;;;;;22.86;34.07;100853.66;4937953;28;20122;-71
2023/09/22 02:03:46;;;;;;;3.30;2.17;;;;;;;22.76;35.05;100846.81;4943257;28;20043;-71
2023/09/22 02:06:15;;;;;;;3.08;2.28;;;;;;;22.68;35.12;100854.88;4943298;28;20059;-72
2023/09/22 02:08:43;;;;;;;4.63;2.10;;;;;;;22.58;35.04;100858.56;4945840;28;20545;-73
2023/09/22 02:11:14;;;;;;;6.20;2.88;;;;;;;22.48;34.97;100863.16;4942041;28;20075;-73
2023/09/22 02:13:56;;;;;;;3.42;2.13;;;;;;;22.38;34.86;100859.81;4948748;28;20129;-75
2023/09/22 02:16:27;;;;;;;2.67;1.88;;;;;;;22.28;34.72;100860.00;4950063;28;20043;-75
2023/09/22 02:18:56;;;;;;;4.38;2.08;;;;;;;22.21;35.12;100848.69;4948719;28;20047;-73
2023/09/22 02:21:25;;;;;;;3.15;2.38;;;;;;;22.15;35.63;100856.66;4947968;28;20048;-73
2023/09/22 02:23:53;;;;;;;3.17;2.20;;;;;;;22.07;36.24;100853.28;4945286;28;20531;-74
2023/09/22 02:26:22;;;;;;;4.78;2.20;;;;;;;21.98;35.83;100854.31;4954360;28;20058;-74
2023/09/22 02:28:51;;;;;;;5.30;2.15;;;;;;;21.89;35.63;100857.09;4948269;28;20055;-73
2023/09/22 02:31:22;;;;;;;4.78;2.13;;;;;;;21.77;36.12;100858.16;4954229;28;20147;-73
2023/09/22 02:33:52;;;;;;;3.97;2.47;;;;;;;21.69;36.59;100860.00;4949859;28;20067;-72
2023/09/22 02:36:20;;;;;;;7.35;2.20;;;;;;;21.58;36.97;100856.66;4948956;28;20131;-71
2023/09/22 02:38:49;;;;;;;7.30;2.33;;;;;;;21.46;37.19;100858.59;4939462;28;19926;-73
2023/09/22 02:41:21;;;;;;;3.53;2.33;;;;;;;21.38;37.03;100857.78;4940466;28;20118;-75
2023/09/22 02:43:49;;;;;;;3.42;2.28;;;;;;;21.26;37.18;100850.94;4945860;28;20061;-73
2023/09/22 02:46:18;;;;;;;4.97;2.35;;;;;;;21.19;37.65;100858.91;4949786;28;20047;-74
2023/09/22 02:48:48;;;;;;;3.70;2.53;;;;;;;21.09;37.39;100859.03;4939782;28;20099;-73
2023/09/22 02:51:17;;;;;;;4.50;2.50;;;;;;;20.99;37.60;100857.41;4951229;28;20047;-74
2023/09/22 02:53:47;;;;;;;5.20;2.97;;;;;;;20.92;38.06;100861.00;4947032;28;20104;-74
2023/09/22 02:56:16;;;;;;;5.22;2.60;;;;;;;20.83;38.18;100855.84;4947139;28;20047;-75
2023/09/22 02:58:45;;;;;;;8.90;2.60;;;;;;;20.73;38.63;100854.19;4950831;28;20086;-73
2023/09/22 03:01:14;;;;;;;11.20;2.47;;;;;;;20.65;38.48;100860.41;4951348;28;20520;-74
2023/09/22 03:03:45;;;;;;;3.58;2.33;;;;;;;20.57;39.10;100866.63;4948394;28;20054;-74
2023/09/22 03:06:18;;;;;;;3.88;2.80;;;;;;;20.50;39.23;100860.50;4945258;28;20059;-73
2023/09/22 03:08:47;;;;;;;9.45;2.50;;;;;;;20.39;39.30;100859.78;4954914;28;20051;-74
2023/09/22 03:11:18;;;;;;;4.40;2.75;;;;;;;20.34;39.28;100866.81;4949534;28;20056;-73
2023/09/22 03:13:47;;;;;;;3.67;2.08;;;;;;;20.26;39.63;100870.38;4949675;28;20130;-74
2023/09/22 03:16:16;;;;;;;4.57;2.50;;;;;;;20.15;40.04;100864.34;4941930;28;20130;-75
2023/09/22 03:18:47;;;;;;;8.27;2.83;;;;;;;20.14;40.57;100869.63;4949159;28;20052;-75
2023/09/22 03:21:22;;;;;;;3.88;2.63;;;;;;;20.06;40.33;100872.28;4945444;28;20056;-75
2023/09/22 03:23:50;;;;;;;3.40;2.30;;;;;;;20.00;40.49;100872.34;4943852;28;20487;-74
2023/09/22 03:26:20;;;;;;;4.65;2.95;;;;;;;19.93;41.16;100875.88;4953165;28;20039;-73
2023/09/22 03:28:48;;;;;;;4.38;2.40;;;;;;;19.83;41.09;100875.94;4949565;28;20052;-73
2023/09/22 03:31:19;;;;;;;6.55;2.63;;;;;;;19.75;41.24;100880.41;4943881;28;20102;-73
2023/09/22 03:33:48;;;;;;;5.80;2.40;;;;;;;19.64;41.19;100876.94;4944713;28;20052;-74
2023/09/22 03:36:19;;;;;;;5.03;2.42;;;;;;;19.56;41.80;100889.22;4950953;28;20048;-75
2023/09/22 03:38:48;;;;;;;3.40;2.42;;;;;;;19.44;42.56;100880.53;4950202;28;20047;-74
2023/09/22 03:41:18;;;;;;;4.47;2.58;;;;;;;19.37;43.00;100881.44;4940985;28;20085;-77
2023/09/22 03:43:49;;;;;;;3.58;1.90;;;;;;;19.34;42.80;100891.94;4947489;28;20129;-74
2023/09/22 03:46:17;;;;;;;5.18;2.13;;;;;;;19.28;42.56;100881.47;4947497;28;20066;-75
2023/09/22 03:48:46;;;;;;;3.70;1.55;;;;;;;19.22;42.62;100884.16;4944123;28;20123;-76
2023/09/22 03:51:15;;;;;;;3.70;1.83;;;;;;;19.17;43.44;100886.78;4950857;28;20135;-74
2023/09/22 03:53:46;;;;;;;4.70;2.22;;;;;;;19.09;43.28;100888.56;4941619;28;20103;-74
2023/09/22 03:56:18;;;;;;;3.97;1.93;;;;;;;19.07;43.49;100886.81;4943810;28;20043;-74
2023/09/22 03:58:46;;;;;;;4.25;2.08;;;;;;;18.98;43.05;100880.72;4954665;28;20133;-72
2023/09/22 04:01:15;;;;;;;2.33;1.92;;;;;;;18.91;42.83;100886.84;4941014;28;20055;-74
2023/09/22 04:03:44;;;;;;;2.85;1.90;;;;;;;18.85;43.99;100892.09;4941813;28;20055;-73
2023/09/22 04:06:13;;;;;;;3.63;1.95;;;;;;;18.78;43.60;100908.72;4948851;28;20078;-73
2023/09/22 04:08:42;;;;;;;2.58;2.15;;;;;;;18.73;44.17;100897.34;4948576;28;20111;-72
2023/09/22 04:11:14;;;;;;;4.50;1.90;;;;;;;18.70;44.51;100900.84;4946279;28;20130;-72
2023/09/22 04:13:44;;;;;;;3.80;1.95;;;;;;;18.65;45.70;100902.63;4942881;28;20147;-74
2023/09/22 04:16:12;;;;;;;3.75;1.88;;;;;;;18.59;45.60;100900.84;4941574;28;20103;-73
2023/09/22 04:18:42;;;;;;;4.53;2.33;;;;;;;18.54;45.05;100896.50;4946443;28;20134;-73
2023/09/22 04:21:24;;;;;;;9.57;1.92;;;;;;;18.46;45.46;100899.13;4942412;28;20079;-72
2023/09/22 04:23:57;;;;;;;4.70;1.90;;;;;;;18.42;45.49;100897.41;4945147;28;20055;-73
2023/09/22 04:26:29;;;;;;;6.90;2.58;;;;;;;18.37;44.98;100897.41;4951417;28;20130;-73
2023/09/22 04:28:59;;;;;;;7.40;2.33;;;;;;;18.34;45.95;100900.00;4937882;28;20061;-72
2023/09/22 04:31:28;;;;;;;4.80;2.15;;;;;;;18.27;46.52;100903.50;4943322;28;20062;-72
2023/09/22 04:34:01;;;;;;;5.32;2.42;;;;;;;18.25;46.51;100901.75;4934170;28;20139;-74
2023/09/22 04:36:30;;;;;;;6.30;2.08;;;;;;;18.17;47.64;100901.75;4945538;28;20528;-72
2023/09/22 04:39:00;;;;;;;6.25;3.25;;;;;;;18.11;47.06;100893.88;4944394;28;20512;-72
2023/09/22 04:41:30;;;;;;;5.18;2.60;;;;;;;18.07;47.26;100900.00;4941958;28;20051;-72
2023/09/22 04:44:02;;;;;;;8.52;2.60;;;;;;;17.99;48.12;100889.53;4943702;28;20056;-73
2023/09/22 04:46:30;;;;;;;4.90;2.73;;;;;;;17.94;48.33;100893.88;4947323;28;20066;-73
2023/09/22 04:48:59;;;;;;;6.55;2.63;;;;;;;17.89;47.82;100896.50;4948549;28;20044;-73
2023/09/22 04:51:30;;;;;;;4.72;2.38;;;;;;;17.85;48.22;100897.34;4947594;28;20065;-73
2023/09/22 04:53:58;;;;;;;8.10;2.17;;;;;;;17.80;48.08;100896.44;4952643;28;20117;-72
2023/09/22 04:56:27;;;;;;;4.45;2.22;;;;;;;17.76;48.17;100898.16;4946667;28;20055;-73
2023/09/22 04:58:57;;;;;;;3.38;2.13;;;;;;;17.69;48.01;100887.69;4947739;28;20059;-72
2023/09/22 05:01:26;;;;;;;7.75;2.42;;;;;;;17.65;48.20;100894.66;4940378;28;20043;-71
2023/09/22 05:03:55;;;;;;;4.25;2.25;;;;;;;17.60;48.73;100891.16;4942307;28;20672;-71
2023/09/22 05:06:27;;;;;;;9.32;2.60;;;;;;;17.55;48.49;100891.16;4938891;28;20058;-73
2023/09/22 05:08:56;;;;;;;3.63;2.17;;;;;;;17.49;48.85;100896.34;4941603;28;20691;-72
2023/09/22 05:11:25;;;;;;;4.43;2.28;;;;;;;17.46;49.47;100898.09;4947962;28;20059;-72
2023/09/22 05:13:54;;;;;;;5.28;2.55;;;;;;;17.37;49.86;100899.78;4942818;28;20146;-72
2023/09/22 05:16:24;;;;;;;4.55;2.22;;;;;;;17.29;50.34;100901.50;4946187;28;20077;-72
2023/09/22 05:18:52;;;;;;;4.07;1.80;;;;;;;17.24;49.60;100905.84;4943582;28;20059;-72
2023/09/22 05:21:21;;;;;;;2.78;2.00;;;;;;;17.20;49.42;100904.06;4945269;28;20102;-71
2023/09/22 05:23:51;;;;;;;3.30;2.10;;;;;;;17.17;49.20;100915.38;4947864;28;20054;-72
2023/09/22 05:26:20;;;;;;;6.60;2.72;;;;;;;17.14;50.44;100912.78;4944241;28;20085;-71
2023/09/22 05:28:50;;;;;;;3.60;2.35;;;;;;;17.09;51.20;100917.09;4947187;28;20055;-72
2023/09/22 05:31:19;;;;;;;5.35;2.63;;;;;;;17.00;51.37;100922.28;4948593;28;20051;-72
2023/09/22 05:33:50;;;;;;;3.33;1.92;;;;;;;16.96;52.27;100921.38;4941023;28;20058;-73
2023/09/22 05:36:18;;;;;;;7.10;2.53;;;;;;;16.91;52.25;100922.22;4946723;28;20054;-72
2023/09/22 05:38:47;;;;;;;7.45;2.70;;;;;;;16.87;52.70;100921.31;4942498;28;20055;-71
2023/09/22 05:41:16;;;;;;;6.20;2.20;;;;;;;16.85;52.25;100920.44;4938827;28;20055;-72
2023/09/22 05:43:45;;;;;;;5.07;1.90;;;;;;;16.86;52.39;100918.69;4939204;29;20073;-73
2023/09/22 05:46:15;;;;;;;3.05;1.83;;;;;;;16.88;51.47;100916.97;4944854;28;20055;-71
2023/09/22 05:48:43;;;;;;;2.20;1.70;;;;;;;16.91;51.21;100915.25;4947520;28;20054;-72
2023/09/22 05:51:14;;;;;;;2.60;1.77;;;;;;;16.95;51.28;100911.81;4940873;28;20043;-72
2023/09/22 05:53:44;;;;;;;2.75;2.00;;;;;;;17.04;50.33;100907.47;4949535;28;20043;-72
2023/09/22 05:56:13;;;;;;;3.63;1.83;;;;;;;17.09;51.25;100897.94;4944422;28;20047;-71
2023/09/22 05:58:42;;;;;;;3.58;2.10;;;;;;;17.13;50.73;100904.91;4947331;28;20413;-72
2023/09/22 06:01:11;;;;;;;6.78;1.83;;;;;;;17.16;50.56;100892.75;4944360;28;20118;-74
2023/09/22 06:03:41;;;;;;;6.43;1.70;;;;;;;17.18;50.08;100895.38;4944108;28;20098;-74
2023/09/22 06:06:11;;;;;;;5.47;1.92;;;;;;;17.24;49.50;100905.84;4949802;28;20051;-73
2023/09/22 06:08:43;;;;;;;3.35;1.88;;;;;;;17.22;49.17;100886.66;4948164;28;20588;-74
2023/09/22 06:11:13;;;;;;;4.53;1.95;;;;;;;17.29;49.50;100893.66;4943064;28;20062;-72
2023/09/22 06:13:43;;;;;;;3.47;1.63;;;;;;;17.28;51.47;100896.28;4945017;28;20072;-73
2023/09/22 06:16:15;;;;;;;3.28;1.70;;;;;;;17.26;51.05;100896.25;4949977;28;20051;-74
2023/09/22 06:18:44;;;;;;;6.05;1.92;;;;;;;17.25;50.50;100897.13;4945285;28;20074;-74
2023/09/22 06:21:13;;;;;;;6.03;1.73;;;;;;;17.23;50.95;100901.50;4948971;28;20170;-74
2023/09/22 06:23:49;;;;;;;7.80;2.92;;;;;;;17.20;51.87;100906.69;4949714;28;20527;-74
2023/09/22 06:26:20;;;;;;;5.30;2.30;;;;;;;17.17;52.46;100898.84;4946823;28;20077;-74
2023/09/22 06:28:49;;;;;;;5.15;1.70;;;;;;;17.13;52.60;100903.19;4944863;28;20193;-74
2023/09/22 06:31:17;;;;;;;2.78;1.73;;;;;;;17.11;53.68;100898.78;4949288;28;20055;-74
2023/09/22 06:33:49;;;;;;;6.10;2.10;;;;;;;17.09;53.96;100900.56;4945230;28;20112;-75
2023/09/22 06:36:18;;;;;;;2.42;1.70;;;;;;;17.06;52.07;100901.38;4949013;28;20048;-74
2023/09/22 06:38:48;;;;;;;3.78;1.77;;;;;;;17.08;51.42;100904.03;4943975;28;20047;-72
2023/09/22 06:41:19;;;;;;;5.70;1.98;;;;;;;17.07;51.24;100900.53;4949065;28;20591;-74
2023/09/22 06:43:47;;;;;;;2.78;1.85;;;;;;;17.11;51.15;100901.41;4943374;28;20078;-73
2023/09/22 06:46:18;;;;;;;2.42;1.50;;;;;;;17.11;51.58;100898.78;4946626;28;20134;-73
2023/09/22 06:48:46;;;;;;;2.17;1.55;;;;;;;17.10;50.46;100912.75;4946775;28;20050;-73
2023/09/22 06:51:18;;;;;;;2.50;1.67;;;;;;;17.08;50.54;100914.47;4947100;28;20584;-75
2023/09/22 06:53:48;;;;;;;2.00;1.73;;;;;;;17.08;50.19;100909.25;4939635;28;20071;-73
2023/09/22 06:56:18;;;;;;;3.67;1.77;;;;;;;17.06;51.04;100913.59;4946144;28;20740;-73
2023/09/22 06:58:47;;;;;;;2.80;1.63;;;;;;;17.06;51.15;100921.44;4947858;28;20142;-74
2023/09/22 07:01:16;;;;;;;3.63;1.48;;;;;;;17.06;51.76;100913.59;4944341;28;20054;-74
2023/09/22 07:04:05;;;;;;;2.80;1.55;;;;;;;17.02;51.63;100919.66;4953737;28;20162;-74
2023/09/22 07:06:33;;;;;;;2.17;1.73;;;;;;;16.94;51.49;100919.63;4950466;28;20129;-74
2023/09/22 07:09:09;;;;;;;2.80;1.60;;;;;;;16.90;51.73;100921.34;4951722;28;20127;-75
2023/09/22 07:11:40;;;;;;;4.15;1.83;;;;;;;16.86;51.65;100919.59;4950653;28;20051;-74
2023/09/22 07:14:09;;;;;;;3.38;2.10;;;;;;;16.83;51.53;100916.06;4952063;28;20497;-75
2023/09/22 07:16:38;;;;;;;2.58;1.63;;;;;;;16.80;52.33;100911.69;4950751;28;20051;-75
2023/09/22 07:19:09;;;;;;;2.92;1.63;;;;;;;16.76;52.68;100907.28;4954651;28;20134;-75
2023/09/22 07:21:38;;;;;;;3.20;1.77;;;;;;;16.73;52.65;100910.75;4947402;28;20254;-74
2023/09/22 07:24:10;;;;;;;3.60;1.48;;;;;;;16.72;53.52;100910.72;4947672;28;20053;-73
2023/09/22 07:26:39;;;;;;;2.83;1.58;;;;;;;16.68;52.96;100909.00;4948365;28;20054;-75
2023/09/22 07:29:07;;;;;;;2.53;1.77;;;;;;;16.65;52.55;100908.94;4944646;28;20061;-74
2023/09/22 07:31:37;;;;;;;2.45;1.50;;;;;;;16.62;52.23;100911.53;4946511;28;20059;-74
2023/09/22 07:34:06;;;;;;;3.10;1.80;;;;;;;16.58;53.03;100907.16;4956247;28;20516;-74
2023/09/22 07:36:34;;;;;;;4.55;2.22;;;;;;;16.52;52.53;100908.00;4953233;28;21227;-74
2023/09/22 07:39:03;;;;;;;7.38;1.85;;;;;;;16.53;52.97;100912.34;4947633;28;20059;-74
2023/09/22 07:41:35;;;;;;;2.42;1.67;;;;;;;16.48;52.78;100906.22;4947468;28;20055;-74
2023/09/22 07:44:06;;;;;;;4.72;1.80;;;;;;;16.44;52.80;100913.16;4953829;28;20552;-74
2023/09/22 07:46:35;;;;;;;3.83;2.08;;;;;;;16.39;52.97;100908.75;4942297;28;20613;-74
2023/09/22 07:49:04;;;;;;;8.25;2.10;;;;;;;16.31;53.38;100906.09;4957641;28;20051;-74
2023/09/22 07:51:33;;;;;;;3.35;1.73;;;;;;;16.25;53.33;100912.13;4943382;28;20490;-74
2023/09/22 07:54:02;;;;;;;4.40;2.25;;;;;;;16.19;53.29;100903.34;4951593;28;20067;-74
2023/09/22 07:56:32;;;;;;;3.50;2.08;;;;;;;16.15;53.77;100902.47;4952251;28;20082;-73
2023/09/22 07:59:02;;;;;;;6.72;2.05;;;;;;;16.11;54.45;100906.78;4953538;28;20051;-72
2023/09/22 08:01:30;;;;;;;3.63;1.90;;;;;;;16.07;54.68;100902.38;4948595;28;20051;-75
2023/09/22 08:03:59;;;;;;;3.50;1.98;;;;;;;16.03;54.89;100916.25;4947908;28;20061;-75
2023/09/22 08:06:31;;;;;;;3.17;2.00;;;;;;;15.98;55.61;100915.34;4945545;28;20039;-74
2023/09/22 08:09:00;;;;;;;5.60;1.65;;;;;;;15.85;56.58;100931.72;4950713;28;20525;-75
2023/09/22 08:11:28;;;;;;;7.15;1.95;;;;;;;15.61;57.42;100930.56;4945433;28;20086;-72
2023/09/22 08:13:59;;;;;;;4.25;1.95;;;;;;;15.53;56.83;100923.50;4948467;28;20047;-74
2023/09/22 08:16:27;;;;;;;3.83;2.08;;;;;;;15.51;57.13;100928.72;4947621;28;20131;-74
2023/09/22 08:18:57;;;;;;;6.03;2.17;;;;;;;15.47;56.81;100921.72;4932836;28;20063;-73
2023/09/22 08:21:25;;;;;;;2.47;1.88;;;;;;;15.45;56.95;100916.47;4948764;28;20083;-73
2023/09/22 08:23:54;;;;;;;4.38;2.30;;;;;;;15.41;56.68;100906.88;4948851;28;20073;-74
2023/09/22 08:26:23;;;;;;;4.18;2.55;;;;;;;15.40;56.79;100909.47;4947199;28;21240;-74
2023/09/22 08:28:52;;;;;;;5.70;2.10;;;;;;;15.38;57.60;100904.22;4941635;28;20043;-73
2023/09/22 08:31:24;;;;;;;3.33;2.00;;;;;;;15.35;57.86;100903.34;4947384;28;20050;-74
2023/09/22 08:33:53;;;;;;;6.07;2.08;;;;;;;15.32;58.10;100900.66;4942178;28;20440;-73
2023/09/22 08:36:21;;;;;;;5.25;1.98;;;;;;;15.26;58.22;100897.13;4950232;28;20125;-73
2023/09/22 08:38:51;;;;;;;3.38;1.73;;;;;;;15.23;58.22;100902.31;4947873;28;20055;-73
2023/09/22 08:41:20;;;;;;;4.00;2.00;;;;;;;15.15;59.74;100898.72;4950817;28;20057;-74
2023/09/22 08:43:49;;;;;;;5.50;2.47;;;;;;;15.01;60.25;100897.69;4947312;28;20066;-73
2023/09/22 08:46:19;;;;;;;2.03;1.50;;;;;;;14.94;60.13;100894.09;4945137;28;20486;-74
2023/09/22 08:48:50;;;;;;;2.55;1.85;;;;;;;14.92;60.26;100897.56;4951506;28;20113;-73
2023/09/22 08:51:19;;;;;;;5.43;2.30;;;;;;;14.89;60.53;100890.56;4947454;28;20502;-73
2023/09/22 08:53:47;;;;;;;2.80;1.67;;;;;;;14.86;60.25;100896.59;4945904;28;20537;-74
2023/09/22 08:56:17;;;;;;;2.85;1.65;;;;;;;14.82;60.52;100897.41;4950250;28;20082;-76
2023/09/22 08:58:45;;;;;;;5.28;2.05;;;;;;;14.77;60.67;100901.66;4947505;28;20047;-73
2023/09/22 09:01:15;;;;;;;6.70;2.28;;;;;;;14.73;60.67;100907.69;4948395;28;20047;-74
2023/09/22 09:03:44;;;;;;;5.25;2.08;;;;;;;14.71;61.26;100909.41;4948497;28;20079;-75
2023/09/22 09:06:19;;;;;;;3.20;2.17;;;;;;;14.65;61.29;100902.34;4949356;28;20070;-74
2023/09/22 09:09:08;;;;;;;4.20;2.08;;;;;;;14.61;61.64;100905.78;4950183;28;20044;-76
2023/09/22 09:11:37;;;;;;;3.72;1.88;;;;;;;14.53;61.13;100906.50;4945459;28;20134;-75
2023/09/22 09:14:23;;;;;;;3.20;1.80;;;;;;;14.53;61.27;100906.50;4945767;28;20451;-75
2023/09/22 09:16:52;;;;;;;3.22;1.50;;;;;;;14.49;62.32;100915.97;4944209;28;20134;-75
2023/09/22 09:19:20;;;;;;;4.80;2.00;;;;;;;14.41;61.67;100897.63;4946283;28;20059;-73
2023/09/22 09:22:17;;;;;;;3.92;1.80;;;;;;;14.44;61.77;100908.09;4947236;28;20101;-74
2023/09/22 09:24:46;;;;;;;3.78;1.65;;;;;;;14.40;62.45;100908.88;4906039;28;20334;-73
2023/09/22 09:27:19;;;;;;;4.25;2.28;;;;;;;14.38;61.99;100915.78;4949401;28;20457;-74
2023/09/22 09:29:53;;;;;;;4.18;2.00;;;;;;;14.35;61.87;100918.34;4948212;28;20146;-74
2023/09/22 09:32:25;;;;;;;5.40;1.95;;;;;;;14.27;61.95;100916.47;4945651;28;20051;-74
2023/09/22 09:34:54;;;;;;;8.68;2.72;;;;;;;14.27;62.74;100914.75;4947839;28;20057;-74
2023/09/22 09:37:26;;;;;;;5.90;2.25;;;;;;;14.22;61.93;100917.28;4946571;28;20055;-74
2023/09/22 09:39:56;;;;;;;4.10;2.38;;;;;;;14.17;62.24;100912.81;4948383;28;20061;-74
2023/09/22 09:42:26;;;;;;;4.57;2.05;;;;;;;14.14;62.30;100928.41;4943235;28;20043;-73
2023/09/22 09:44:57;;;;;;;5.95;2.20;;;;;;;14.10;63.29;100922.25;4938865;28;20058;-76
2023/09/22 09:47:27;;;;;;;2.95;2.03;;;;;;;14.08;63.33;100912.66;4948999;28;20109;-75
2023/09/22 09:49:56;;;;;;;6.28;2.22;;;;;;;14.06;63.31;100909.16;4945567;28;20055;-73
2023/09/22 09:52:31;;;;;;;5.53;2.17;;;;;;;14.00;63.94;100905.59;4946942;28;20063;-74
2023/09/22 09:55:14;;;;;;;4.25;2.53;;;;;;;13.95;63.86;100915.06;4947581;28;20552;-74
2023/09/22 09:57:46;;;;;;;3.88;2.05;;;;;;;13.88;63.76;100904.50;4944989;28;20495;-73
2023/09/22 10:00:19;;;;;;;7.57;2.53;;;;;;;13.85;64.29;100907.91;4949543;28;20051;-74
2023/09/22 10:02:52;;;;;;;2.53;2.05;;;;;;;13.81;64.88;100911.31;4947980;28;20134;-74
2023/09/22 10:05:23;;;;;;;6.25;1.80;;;;;;;13.76;64.84;100910.34;4949478;28;20047;-74
2023/09/22 10:07:56;;;;;;;3.25;2.00;;;;;;;13.72;65.24;100905.94;4955904;28;20133;-75
2023/09/22 10:10:30;;;;;;;5.70;2.45;;;;;;;13.70;65.58;100905.94;4948797;28;20055;-74
2023/09/22 10:12:59;;;;;;;3.15;1.77;;;;;;;13.66;65.22;100908.44;4940628;28;20143;-73
2023/09/22 10:15:54;;;;;;;3.17;2.00;;;;;;;13.61;65.55;100901.41;4956052;28;20246;-73
2023/09/22 10:18:23;;;;;;;3.90;2.28;;;;;;;13.59;65.78;100903.09;4948447;28;20079;-73
2023/09/22 10:20:52;;;;;;;5.90;2.25;;;;;;;13.54;65.67;100894.34;4944778;28;20189;-72
2023/09/22 10:23:25;;;;;;;4.30;1.90;;;;;;;13.51;65.73;100901.19;4955479;28;20063;-74
2023/09/22 10:26:18;;;;;;;7.50;2.05;;;;;;;13.46;66.24;100901.09;4947292;28;20146;-73
2023/09/22 10:28:47;;;;;;;7.38;2.35;;;;;;;13.42;66.32;100899.28;4943395;28;20059;-74
2023/09/22 10:31:22;;;;;;;5.93;2.05;;;;;;;13.37;66.35;100898.31;4945302;28;20089;-75
2023/09/22 10:33:51;;;;;;;5.07;2.03;;;;;;;13.33;66.41;100899.09;4944062;28;20047;-73
2023/09/22 10:36:50;;;;;;;3.90;2.55;;;;;;;13.30;66.45;100901.66;4952881;28;20056;-73
2023/09/22 10:39:21;;;;;;;4.68;2.28;;;;;;;13.24;66.35;100904.06;4950551;28;20138;-75
2023/09/22 10:42:01;;;;;;;8.77;2.42;;;;;;;13.17;67.48;100903.97;4948418;28;20051;-74
2023/09/22 10:44:30;;;;;;;3.28;2.05;;;;;;;13.19;67.74;100910.06;4955507;28;20056;-74
2023/09/22 10:46:58;;;;;;;4.70;2.05;;;;;;;13.14;67.34;100897.81;4961082;28;20054;-74
2023/09/22 10:49:34;;;;;;;3.90;2.40;;;;;;;13.13;68.08;100911.66;4947548;28;20142;-73
2023/09/22 10:52:02;;;;;;;8.88;2.70;;;;;;;13.00;69.68;100915.69;4947662;28;20051;-71
2023/09/22 10:54:43;;;;;;;4.68;2.47;;;;;;;12.90;71.46;100921.53;4949773;28;20043;-73
2023/09/22 10:57:24;;;;;;;3.63;1.95;;;;;;;12.82;70.97;100923.09;4954052;28;20043;-73
2023/09/22 10:59:54;;;;;;;3.00;1.88;;;;;;;12.81;70.66;100923.94;4952669;28;20105;-72
2023/09/22 11:02:26;;;;;;;5.10;2.38;;;;;;;12.77;70.56;100922.97;4947349;28;20174;-74
2023/09/22 11:04:55;;;;;;;4.15;2.45;;;;;;;12.74;70.41;100912.53;4949513;28;20055;-73
2023/09/22 11:07:33;;;;;;;2.90;2.17;;;;;;;12.68;70.48;100913.25;4950097;28;20062;-74
2023/09/22 11:10:04;;;;;;;6.18;2.53;;;;;;;12.66;70.53;100914.06;4945387;28;20055;-74
2023/09/22 11:12:37;;;;;;;3.85;2.03;;;;;;;12.63;70.92;100912.28;4948987;28;20099;-74
2023/09/22 11:15:06;;;;;;;4.05;2.08;;;;;;;12.63;71.15;100908.81;4951087;28;20154;-74
2023/09/22 11:17:46;;;;;;;5.15;2.40;;;;;;;12.63;70.98;100917.47;4947566;28;20102;-74
2023/09/22 11:20:22;;;;;;;3.95;2.05;;;;;;;12.59;71.78;100902.66;4950260;28;20055;-75
2023/09/22 11:22:52;;;;;;;8.68;2.22;;;;;;;12.55;71.60;100903.41;4945421;28;20162;-73
2023/09/22 11:25:24;;;;;;;5.10;2.08;;;;;;;12.52;71.59;100900.75;4928930;29;20079;-73
2023/09/22 11:27:55;;;;;;;7.72;2.40;;;;;;;12.51;71.22;100909.41;4936352;29;20159;-73
2023/09/22 11:30:26;;;;;;;3.42;1.98;;;;;;;12.48;71.22;100912.75;4931981;29;20063;-74
2023/09/22 11:32:56;;;;;;;4.83;2.40;;;;;;;12.46;71.44;100916.16;4932353;29;20077;-74
2023/09/22 11:35:37;;;;;;;8.55;2.20;;;;;;;12.45;71.93;100917.03;4932515;29;20332;-75
2023/09/22 11:38:27;;;;;;;5.20;2.80;;;;;;;12.39;71.65;100915.13;4925115;29;20455;-75
2023/09/22 11:41:07;;;;;;;6.75;2.40;;;;;;;12.38;71.75;100921.19;4930179;29;20529;-75